sensor_id;sensor_type;location;lat;lon;timestamp;P1;durP1;ratioP1;P2;durP2;ratioP2
23304;SDS011;11821;51.456;8.844;2023-09-18T00:00:49;7.07;;;3.75;;
23304;SDS011;11821;51.456;8.844;2023-09-18T00:03:16;4.13;;;3.67;;
23304;SDS011;11821;51.456;8.844;2023-09-18T00:05:45;4.03;;;3.72;;
23304;SDS011;11821;51.456;8.844;2023-09-18T00:08:14;4.50;;;4.10;;
23304;SDS011;11821;51.456;8.844;2023-09-18T00:10:41;3.40;;;3.10;;
23304;SDS011;11821;51.456;8.844;2023-09-18T00:13:08;3.92;;;3.53;;
23304;SDS011;11821;51.456;8.844;2023-09-18T00:15:35;6.63;;;3.95;;
23304;SDS011;11821;51.456;8.844;2023-09-18T00:18:02;3.28;;;2.97;;
23304;SDS011;11821;51.456;8.844;2023-09-18T00:20:29;3.70;;;3.40;;
23304;SDS011;11821;51.456;8.844;2023-09-18T00:22:55;4.13;;;3.50;;
23304;SDS011;11821;51.456;8.844;2023-09-18T00:25:22;5.68;;;3.60;;
23304;SDS011;11821;51.456;8.844;2023-09-18T00:27:48;4.22;;;3.38;;
23304;SDS011;11821;51.456;8.844;2023-09-18T00:30:15;4.40;;;3.88;;
23304;SDS011;11821;51.456;8.844;2023-09-18T00:32:41;6.47;;;4.05;;
23304;SDS011;11821;51.456;8.844;2023-09-18T00:35:07;6.65;;;4.75;;
23304;SDS011;11821;51.456;8.844;2023-09-18T00:37:34;10.88;;;4.80;;
23304;SDS011;11821;51.456;8.844;2023-09-18T00:40:02;7.07;;;4.47;;
23304;SDS011;11821;51.456;8.844;2023-09-18T00:42:30;6.82;;;5.20;;
23304;SDS011;11821;51.456;8.844;2023-09-18T00:44:57;6.88;;;5.40;;
23304;SDS011;11821;51.456;8.844;2023-09-18T00:47:24;6.07;;;5.22;;
23304;SDS011;11821;51.456;8.844;2023-09-18T00:49:50;6.45;;;4.50;;
23304;SDS011;11821;51.456;8.844;2023-09-18T00:52:18;7.65;;;5.38;;
23304;SDS011;11821;51.456;8.844;2023-09-18T00:54:46;12.90;;;5.68;;
23304;SDS011;11821;51.456;8.844;2023-09-18T00:57:14;42.40;;;7.03;;
23304;SDS011;11821;51.456;8.844;2023-09-18T00:59:41;50.33;;;7.35;;
23304;SDS011;11821;51.456;8.844;2023-09-18T01:02:08;35.67;;;6.90;;
23304;SDS011;11821;51.456;8.844;2023-09-18T01:04:34;23.77;;;6.68;;
23304;SDS011;11821;51.456;8.844;2023-09-18T01:07:01;23.30;;;6.78;;
23304;SDS011;11821;51.456;8.844;2023-09-18T01:09:29;36.55;;;6.40;;
23304;SDS011;11821;51.456;8.844;2023-09-18T01:17:22;11.75;;;6.60;;
23304;SDS011;11821;51.456;8.844;2023-09-18T01:19:50;8.07;;;6.90;;
23304;SDS011;11821;51.456;8.844;2023-09-18T01:22:17;27.35;;;7.30;;
23304;SDS011;11821;51.456;8.844;2023-09-18T01:24:44;8.57;;;7.15;;
23304;SDS011;11821;51.456;8.844;2023-09-18T01:27:14;27.23;;;7.70;;
23304;SDS011;11821;51.456;8.844;2023-09-18T01:29:45;27.38;;;8.05;;
23304;SDS011;11821;51.456;8.844;2023-09-18T01:32:12;13.15;;;7.18;;
23304;SDS011;11821;51.456;8.844;2023-09-18T01:34:41;19.75;;;6.53;;
23304;SDS011;11821;51.456;8.844;2023-09-18T01:37:11;27.70;;;7.55;;
23304;SDS011;11821;51.456;8.844;2023-09-18T01:39:39;29.02;;;6.88;;
23304;SDS011;11821;51.456;8.844;2023-09-18T01:42:07;23.75;;;7.03;;
23304;SDS011;11821;51.456;8.844;2023-09-18T01:44:36;43.75;;;6.45;;
23304;SDS011;11821;51.456;8.844;2023-09-18T01:47:04;56.60;;;7.10;;
23304;SDS011;11821;51.456;8.844;2023-09-18T01:49:33;56.15;;;7.28;;
23304;SDS011;11821;51.456;8.844;2023-09-18T01:52:02;49.22;;;6.72;;
23304;SDS011;11821;51.456;8.844;2023-09-18T01:54:30;42.70;;;6.75;;
23304;SDS011;11821;51.456;8.844;2023-09-18T01:56:57;77.03;;;7.53;;
23304;SDS011;11821;51.456;8.844;2023-09-18T01:59:24;52.60;;;7.75;;
23304;SDS011;11821;51.456;8.844;2023-09-18T02:01:50;46.67;;;7.68;;
23304;SDS011;11821;51.456;8.844;2023-09-18T02:04:17;33.22;;;6.82;;
23304;SDS011;11821;51.456;8.844;2023-09-18T02:06:45;52.08;;;7.20;;
23304;SDS011;11821;51.456;8.844;2023-09-18T02:09:12;83.35;;;9.10;;
23304;SDS011;11821;51.456;8.844;2023-09-18T02:11:40;53.45;;;8.18;;
23304;SDS011;11821;51.456;8.844;2023-09-18T02:14:08;28.20;;;7.65;;
23304;SDS011;11821;51.456;8.844;2023-09-18T02:16:36;14.85;;;7.03;;
23304;SDS011;11821;51.456;8.844;2023-09-18T02:19:07;10.45;;;6.65;;
23304;SDS011;11821;51.456;8.844;2023-09-18T02:21:37;16.85;;;6.53;;
23304;SDS011;11821;51.456;8.844;2023-09-18T02:24:05;12.80;;;6.70;;
23304;SDS011;11821;51.456;8.844;2023-09-18T02:26:31;18.27;;;7.43;;
23304;SDS011;11821;51.456;8.844;2023-09-18T02:28:59;15.20;;;7.97;;
23304;SDS011;11821;51.456;8.844;2023-09-18T02:31:25;12.20;;;6.97;;
23304;SDS011;11821;51.456;8.844;2023-09-18T02:33:53;30.23;;;8.27;;
23304;SDS011;11821;51.456;8.844;2023-09-18T02:36:20;15.70;;;7.03;;
23304;SDS011;11821;51.456;8.844;2023-09-18T02:38:48;30.05;;;8.27;;
23304;SDS011;11821;51.456;8.844;2023-09-18T02:41:15;26.17;;;8.35;;
23304;SDS011;11821;51.456;8.844;2023-09-18T02:43:41;20.13;;;7.22;;
23304;SDS011;11821;51.456;8.844;2023-09-18T02:46:07;18.15;;;6.68;;
23304;SDS011;11821;51.456;8.844;2023-09-18T02:48:34;12.27;;;7.65;;
23304;SDS011;11821;51.456;8.844;2023-09-18T02:51:00;15.25;;;7.50;;
23304;SDS011;11821;51.456;8.844;2023-09-18T02:53:28;12.60;;;6.50;;
23304;SDS011;11821;51.456;8.844;2023-09-18T02:55:57;26.42;;;6.97;;
23304;SDS011;11821;51.456;8.844;2023-09-18T02:58:23;17.50;;;6.72;;
23304;SDS011;11821;51.456;8.844;2023-09-18T03:00:55;16.40;;;7.60;;
23304;SDS011;11821;51.456;8.844;2023-09-18T03:03:27;13.20;;;6.50;;
23304;SDS011;11821;51.456;8.844;2023-09-18T03:05:59;10.05;;;6.68;;
23304;SDS011;11821;51.456;8.844;2023-09-18T03:08:30;9.10;;;6.40;;
23304;SDS011;11821;51.456;8.844;2023-09-18T03:10:57;11.50;;;6.45;;
23304;SDS011;11821;51.456;8.844;2023-09-18T03:13:25;8.50;;;6.20;;
23304;SDS011;11821;51.456;8.844;2023-09-18T03:15:54;10.50;;;6.18;;
23304;SDS011;11821;51.456;8.844;2023-09-18T03:18:23;9.30;;;6.55;;
23304;SDS011;11821;51.456;8.844;2023-09-18T03:20:49;8.93;;;6.18;;
23304;SDS011;11821;51.456;8.844;2023-09-18T03:23:15;7.60;;;5.60;;
23304;SDS011;11821;51.456;8.844;2023-09-18T03:25:42;7.60;;;5.82;;
23304;SDS011;11821;51.456;8.844;2023-09-18T03:28:08;6.35;;;5.75;;
23304;SDS011;11821;51.456;8.844;2023-09-18T03:30:35;6.88;;;6.18;;
23304;SDS011;11821;51.456;8.844;2023-09-18T03:33:02;8.77;;;6.68;;
23304;SDS011;11821;51.456;8.844;2023-09-18T03:35:30;13.73;;;7.47;;
23304;SDS011;11821;51.456;8.844;2023-09-18T03:37:58;10.75;;;7.15;;
23304;SDS011;11821;51.456;8.844;2023-09-18T03:40:25;7.15;;;5.70;;
23304;SDS011;11821;51.456;8.844;2023-09-18T03:42:51;8.32;;;6.15;;
23304;SDS011;11821;51.456;8.844;2023-09-18T03:45:18;9.05;;;6.05;;
23304;SDS011;11821;51.456;8.844;2023-09-18T03:47:47;16.02;;;6.03;;
23304;SDS011;11821;51.456;8.844;2023-09-18T03:50:16;8.85;;;6.28;;
23304;SDS011;11821;51.456;8.844;2023-09-18T03:52:42;7.55;;;6.32;;
23304;SDS011;11821;51.456;8.844;2023-09-18T03:55:08;6.18;;;5.57;;
23304;SDS011;11821;51.456;8.844;2023-09-18T03:57:35;6.85;;;5.18;;
23304;SDS011;11821;51.456;8.844;2023-09-18T04:00:03;6.93;;;5.68;;
23304;SDS011;11821;51.456;8.844;2023-09-18T04:02:37;6.65;;;6.03;;
23304;SDS011;11821;51.456;8.844;2023-09-18T04:05:04;8.80;;;6.95;;
23304;SDS011;11821;51.456;8.844;2023-09-18T04:07:30;12.27;;;6.82;;
23304;SDS011;11821;51.456;8.844;2023-09-18T04:09:59;10.70;;;7.70;;
23304;SDS011;11821;51.456;8.844;2023-09-18T04:12:26;9.35;;;7.20;;
23304;SDS011;11821;51.456;8.844;2023-09-18T04:14:52;8.93;;;6.55;;
23304;SDS011;11821;51.456;8.844;2023-09-18T04:17:19;7.47;;;6.68;;
23304;SDS011;11821;51.456;8.844;2023-09-18T04:19:46;10.02;;;7.20;;
23304;SDS011;11821;51.456;8.844;2023-09-18T04:22:13;8.40;;;6.93;;
23304;SDS011;11821;51.456;8.844;2023-09-18T04:24:40;8.07;;;7.00;;
23304;SDS011;11821;51.456;8.844;2023-09-18T04:27:08;6.90;;;6.20;;
23304;SDS011;11821;51.456;8.844;2023-09-18T04:29:35;10.15;;;7.30;;
23304;SDS011;11821;51.456;8.844;2023-09-18T04:32:03;7.85;;;5.82;;
23304;SDS011;11821;51.456;8.844;2023-09-18T04:34:30;7.18;;;6.47;;
23304;SDS011;11821;51.456;8.844;2023-09-18T04:36:57;11.27;;;6.68;;
23304;SDS011;11821;51.456;8.844;2023-09-18T04:39:23;7.30;;;6.60;;
23304;SDS011;11821;51.456;8.844;2023-09-18T04:41:50;11.80;;;7.75;;
23304;SDS011;11821;51.456;8.844;2023-09-18T04:44:16;7.22;;;5.70;;
23304;SDS011;11821;51.456;8.844;2023-09-18T04:46:44;7.20;;;5.22;;
23304;SDS011;11821;51.456;8.844;2023-09-18T04:49:11;8.77;;;6.70;;
23304;SDS011;11821;51.456;8.844;2023-09-18T04:51:38;10.18;;;7.32;;
23304;SDS011;11821;51.456;8.844;2023-09-18T04:54:05;9.43;;;6.93;;
23304;SDS011;11821;51.456;8.844;2023-09-18T04:56:33;6.18;;;5.50;;
23304;SDS011;11821;51.456;8.844;2023-09-18T04:59:04;6.93;;;6.05;;
23304;SDS011;11821;51.456;8.844;2023-09-18T05:01:31;10.35;;;6.68;;
23304;SDS011;11821;51.456;8.844;2023-09-18T05:03:57;12.82;;;7.28;;
23304;SDS011;11821;51.456;8.844;2023-09-18T05:06:24;13.88;;;6.70;;
23304;SDS011;11821;51.456;8.844;2023-09-18T05:08:51;11.85;;;7.15;;
23304;SDS011;11821;51.456;8.844;2023-09-18T05:11:18;8.38;;;7.43;;
23304;SDS011;11821;51.456;8.844;2023-09-18T05:13:46;7.93;;;7.13;;
23304;SDS011;11821;51.456;8.844;2023-09-18T05:16:12;9.45;;;5.95;;
23304;SDS011;11821;51.456;8.844;2023-09-18T05:18:39;7.65;;;6.40;;
23304;SDS011;11821;51.456;8.844;2023-09-18T05:21:06;9.73;;;6.10;;
23304;SDS011;11821;51.456;8.844;2023-09-18T05:23:33;8.98;;;7.28;;
23304;SDS011;11821;51.456;8.844;2023-09-18T05:26:00;6.55;;;5.95;;
23304;SDS011;11821;51.456;8.844;2023-09-18T05:28:26;9.77;;;6.93;;
23304;SDS011;11821;51.456;8.844;2023-09-18T05:30:53;10.60;;;7.07;;
23304;SDS011;11821;51.456;8.844;2023-09-18T05:33:20;7.93;;;6.40;;
23304;SDS011;11821;51.456;8.844;2023-09-18T05:35:47;5.72;;;5.13;;
23304;SDS011;11821;51.456;8.844;2023-09-18T05:38:14;5.95;;;5.35;;
23304;SDS011;11821;51.456;8.844;2023-09-18T05:40:42;6.65;;;5.47;;
23304;SDS011;11821;51.456;8.844;2023-09-18T05:43:10;6.75;;;5.53;;
23304;SDS011;11821;51.456;8.844;2023-09-18T05:45:37;7.55;;;6.22;;
23304;SDS011;11821;51.456;8.844;2023-09-18T05:48:05;7.43;;;5.03;;
23304;SDS011;11821;51.456;8.844;2023-09-18T05:50:34;9.07;;;5.47;;
23304;SDS011;11821;51.456;8.844;2023-09-18T05:53:03;5.57;;;5.07;;
23304;SDS011;11821;51.456;8.844;2023-09-18T05:55:30;8.45;;;4.82;;
23304;SDS011;11821;51.456;8.844;2023-09-18T05:57:57;5.28;;;4.78;;
23304;SDS011;11821;51.456;8.844;2023-09-18T06:00:24;8.50;;;4.97;;
23304;SDS011;11821;51.456;8.844;2023-09-18T06:02:51;7.60;;;4.88;;
23304;SDS011;11821;51.456;8.844;2023-09-18T06:05:18;5.85;;;4.75;;
23304;SDS011;11821;51.456;8.844;2023-09-18T06:07:50;6.20;;;4.82;;
23304;SDS011;11821;51.456;8.844;2023-09-18T06:10:18;5.25;;;4.75;;
23304;SDS011;11821;51.456;8.844;2023-09-18T06:12:45;11.73;;;4.70;;
23304;SDS011;11821;51.456;8.844;2023-09-18T06:15:11;8.85;;;4.30;;
23304;SDS011;11821;51.456;8.844;2023-09-18T06:17:38;5.15;;;4.68;;
23304;SDS011;11821;51.456;8.844;2023-09-18T06:20:05;8.82;;;4.30;;
23304;SDS011;11821;51.456;8.844;2023-09-18T06:22:36;5.07;;;4.00;;
23304;SDS011;11821;51.456;8.844;2023-09-18T06:25:03;9.48;;;4.28;;
23304;SDS011;11821;51.456;8.844;2023-09-18T06:27:30;4.47;;;3.83;;
23304;SDS011;11821;51.456;8.844;2023-09-18T06:29:58;4.97;;;3.88;;
23304;SDS011;11821;51.456;8.844;2023-09-18T06:32:24;4.90;;;3.78;;
23304;SDS011;11821;51.456;8.844;2023-09-18T06:34:51;5.35;;;3.70;;
23304;SDS011;11821;51.456;8.844;2023-09-18T06:37:17;7.65;;;4.07;;
23304;SDS011;11821;51.456;8.844;2023-09-18T06:39:44;8.00;;;4.07;;
23304;SDS011;11821;51.456;8.844;2023-09-18T06:42:11;5.53;;;4.20;;
23304;SDS011;11821;51.456;8.844;2023-09-18T06:44:37;8.05;;;3.85;;
23304;SDS011;11821;51.456;8.844;2023-09-18T06:47:04;7.50;;;3.90;;
23304;SDS011;11821;51.456;8.844;2023-09-18T06:49:30;5.13;;;3.55;;
23304;SDS011;11821;51.456;8.844;2023-09-18T06:51:58;8.30;;;4.50;;
23304;SDS011;11821;51.456;8.844;2023-09-18T06:54:24;12.00;;;4.57;;
23304;SDS011;11821;51.456;8.844;2023-09-18T06:56:51;7.03;;;4.18;;
23304;SDS011;11821;51.456;8.844;2023-09-18T06:59:17;4.78;;;4.20;;
23304;SDS011;11821;51.456;8.844;2023-09-18T07:01:44;6.20;;;4.00;;
23304;SDS011;11821;51.456;8.844;2023-09-18T07:04:10;7.40;;;3.97;;
23304;SDS011;11821;51.456;8.844;2023-09-18T07:06:37;5.20;;;3.78;;
23304;SDS011;11821;51.456;8.844;2023-09-18T07:09:04;8.10;;;3.50;;
23304;SDS011;11821;51.456;8.844;2023-09-18T07:11:33;5.65;;;3.15;;
23304;SDS011;11821;51.456;8.844;2023-09-18T07:13:59;8.43;;;3.75;;
23304;SDS011;11821;51.456;8.844;2023-09-18T07:16:27;6.43;;;3.40;;
23304;SDS011;11821;51.456;8.844;2023-09-18T07:18:54;10.88;;;3.97;;
23304;SDS011;11821;51.456;8.844;2023-09-18T07:21:20;8.95;;;3.78;;
23304;SDS011;11821;51.456;8.844;2023-09-18T07:23:47;6.47;;;3.88;;
23304;SDS011;11821;51.456;8.844;2023-09-18T07:26:14;10.73;;;3.97;;
23304;SDS011;11821;51.456;8.844;2023-09-18T07:28:40;7.47;;;3.25;;
23304;SDS011;11821;51.456;8.844;2023-09-18T07:31:08;7.95;;;3.70;;
23304;SDS011;11821;51.456;8.844;2023-09-18T07:33:37;5.82;;;3.42;;
23304;SDS011;11821;51.456;8.844;2023-09-18T07:36:04;6.20;;;4.28;;
23304;SDS011;11821;51.456;8.844;2023-09-18T07:38:31;6.88;;;3.60;;
23304;SDS011;11821;51.456;8.844;2023-09-18T07:40:58;5.18;;;3.10;;
23304;SDS011;11821;51.456;8.844;2023-09-18T07:43:25;6.90;;;3.70;;
23304;SDS011;11821;51.456;8.844;2023-09-18T07:45:52;6.85;;;2.92;;
23304;SDS011;11821;51.456;8.844;2023-09-18T07:48:21;5.35;;;2.80;;
23304;SDS011;11821;51.456;8.844;2023-09-18T07:50:48;9.55;;;2.67;;
23304;SDS011;11821;51.456;8.844;2023-09-18T07:53:15;12.30;;;3.13;;
23304;SDS011;11821;51.456;8.844;2023-09-18T07:55:42;10.85;;;3.40;;
23304;SDS011;11821;51.456;8.844;2023-09-18T07:58:09;4.57;;;2.85;;
23304;SDS011;11821;51.456;8.844;2023-09-18T08:00:35;6.60;;;3.00;;
23304;SDS011;11821;51.456;8.844;2023-09-18T08:03:02;6.10;;;2.70;;
23304;SDS011;11821;51.456;8.844;2023-09-18T08:05:28;11.70;;;2.85;;
23304;SDS011;11821;51.456;8.844;2023-09-18T08:07:57;13.27;;;3.05;;
23304;SDS011;11821;51.456;8.844;2023-09-18T08:10:27;6.82;;;2.88;;
23304;SDS011;11821;51.456;8.844;2023-09-18T08:12:54;6.45;;;3.13;;
23304;SDS011;11821;51.456;8.844;2023-09-18T08:15:21;8.30;;;2.60;;
23304;SDS011;11821;51.456;8.844;2023-09-18T08:17:48;8.00;;;2.63;;
23304;SDS011;11821;51.456;8.844;2023-09-18T08:20:15;8.50;;;2.72;;
23304;SDS011;11821;51.456;8.844;2023-09-18T08:22:42;10.23;;;3.60;;
23304;SDS011;11821;51.456;8.844;2023-09-18T08:25:10;5.05;;;2.80;;
23304;SDS011;11821;51.456;8.844;2023-09-18T08:27:37;5.63;;;2.83;;
23304;SDS011;11821;51.456;8.844;2023-09-18T08:30:07;5.43;;;2.67;;
23304;SDS011;11821;51.456;8.844;2023-09-18T08:32:36;6.57;;;3.17;;
23304;SDS011;11821;51.456;8.844;2023-09-18T08:35:03;5.78;;;2.90;;
23304;SDS011;11821;51.456;8.844;2023-09-18T08:37:30;10.32;;;3.20;;
23304;SDS011;11821;51.456;8.844;2023-09-18T08:39:56;4.90;;;3.33;;
23304;SDS011;11821;51.456;8.844;2023-09-18T08:42:25;7.78;;;2.90;;
23304;SDS011;11821;51.456;8.844;2023-09-18T08:44:51;4.10;;;2.67;;
23304;SDS011;11821;51.456;8.844;2023-09-18T08:47:20;5.13;;;2.85;;
23304;SDS011;11821;51.456;8.844;2023-09-18T08:49:47;6.78;;;2.65;;
23304;SDS011;11821;51.456;8.844;2023-09-18T08:52:15;8.00;;;2.90;;
23304;SDS011;11821;51.456;8.844;2023-09-18T08:54:42;8.25;;;3.00;;
23304;SDS011;11821;51.456;8.844;2023-09-18T08:57:09;5.88;;;3.22;;
23304;SDS011;11821;51.456;8.844;2023-09-18T08:59:37;6.75;;;2.85;;
23304;SDS011;11821;51.456;8.844;2023-09-18T09:02:07;7.55;;;3.00;;
23304;SDS011;11821;51.456;8.844;2023-09-18T09:04:37;6.50;;;2.70;;
23304;SDS011;11821;51.456;8.844;2023-09-18T09:07:04;6.72;;;2.78;;
23304;SDS011;11821;51.456;8.844;2023-09-18T09:09:30;5.35;;;2.90;;
23304;SDS011;11821;51.456;8.844;2023-09-18T09:11:57;5.75;;;2.58;;
23304;SDS011;11821;51.456;8.844;2023-09-18T09:14:23;6.07;;;2.53;;
23304;SDS011;11821;51.456;8.844;2023-09-18T09:16:56;9.65;;;2.58;;
23304;SDS011;11821;51.456;8.844;2023-09-18T09:21:56;5.65;;;2.60;;
23304;SDS011;11821;51.456;8.844;2023-09-18T09:24:36;9.40;;;2.80;;
23304;SDS011;11821;51.456;8.844;2023-09-18T09:27:03;7.15;;;2.33;;
23304;SDS011;11821;51.456;8.844;2023-09-18T09:29:30;9.75;;;2.70;;
23304;SDS011;11821;51.456;8.844;2023-09-18T09:32:11;5.28;;;2.17;;
23304;SDS011;11821;51.456;8.844;2023-09-18T09:34:38;11.63;;;2.67;;
23304;SDS011;11821;51.456;8.844;2023-09-18T09:37:05;5.40;;;2.60;;
23304;SDS011;11821;51.456;8.844;2023-09-18T09:39:32;7.20;;;2.60;;
23304;SDS011;11821;51.456;8.844;2023-09-18T09:42:00;7.90;;;2.28;;
23304;SDS011;11821;51.456;8.844;2023-09-18T09:44:32;5.63;;;2.60;;
23304;SDS011;11821;51.456;8.844;2023-09-18T09:46:59;6.15;;;2.20;;
23304;SDS011;11821;51.456;8.844;2023-09-18T09:49:26;4.72;;;2.03;;
23304;SDS011;11821;51.456;8.844;2023-09-18T09:51:58;2.63;;;1.48;;
23304;SDS011;11821;51.456;8.844;2023-09-18T09:54:32;4.50;;;1.40;;
23304;SDS011;11821;51.456;8.844;2023-09-18T09:57:04;2.45;;;1.40;;
23304;SDS011;11821;51.456;8.844;2023-09-18T09:59:30;5.38;;;1.38;;
23304;SDS011;11821;51.456;8.844;2023-09-18T10:02:00;2.17;;;1.30;;
23304;SDS011;11821;51.456;8.844;2023-09-18T10:04:28;3.42;;;1.23;;
23304;SDS011;11821;51.456;8.844;2023-09-18T10:06:56;3.08;;;1.20;;
23304;SDS011;11821;51.456;8.844;2023-09-18T10:09:23;2.92;;;1.10;;
23304;SDS011;11821;51.456;8.844;2023-09-18T10:11:54;3.85;;;1.42;;
23304;SDS011;11821;51.456;8.844;2023-09-18T10:14:25;2.97;;;1.33;;
23304;SDS011;11821;51.456;8.844;2023-09-18T10:16:54;2.28;;;1.20;;
23304;SDS011;11821;51.456;8.844;2023-09-18T10:24:39;2.60;;;1.20;;
23304;SDS011;11821;51.456;8.844;2023-09-18T10:29:38;4.50;;;0.90;;
23304;SDS011;11821;51.456;8.844;2023-09-18T10:32:07;3.35;;;1.00;;
23304;SDS011;11821;51.456;8.844;2023-09-18T10:34:34;3.47;;;1.15;;
23304;SDS011;11821;51.456;8.844;2023-09-18T10:37:02;1.77;;;0.95;;
23304;SDS011;11821;51.456;8.844;2023-09-18T10:39:34;2.83;;;1.13;;
23304;SDS011;11821;51.456;8.844;2023-09-18T10:42:01;5.40;;;1.15;;
23304;SDS011;11821;51.456;8.844;2023-09-18T10:44:29;4.25;;;1.10;;
23304;SDS011;11821;51.456;8.844;2023-09-18T10:46:57;4.35;;;1.25;;
23304;SDS011;11821;51.456;8.844;2023-09-18T10:49:24;3.50;;;1.10;;
23304;SDS011;11821;51.456;8.844;2023-09-18T10:51:53;5.07;;;1.38;;
23304;SDS011;11821;51.456;8.844;2023-09-18T10:54:20;3.10;;;1.10;;
23304;SDS011;11821;51.456;8.844;2023-09-18T10:56:47;3.70;;;1.10;;
23304;SDS011;11821;51.456;8.844;2023-09-18T10:59:15;5.00;;;1.13;;
23304;SDS011;11821;51.456;8.844;2023-09-18T11:01:42;2.78;;;1.50;;
23304;SDS011;11821;51.456;8.844;2023-09-18T11:04:10;2.92;;;1.25;;
23304;SDS011;11821;51.456;8.844;2023-09-18T11:07:00;2.47;;;1.20;;
23304;SDS011;11821;51.456;8.844;2023-09-18T11:09:29;2.05;;;1.25;;
23304;SDS011;11821;51.456;8.844;2023-09-18T11:17:34;2.75;;;1.33;;
23304;SDS011;11821;51.456;8.844;2023-09-18T11:20:22;2.05;;;1.20;;
23304;SDS011;11821;51.456;8.844;2023-09-18T11:23:24;3.03;;;1.00;;
23304;SDS011;11821;51.456;8.844;2023-09-18T11:25:44;5.18;;;1.60;;
23304;SDS011;11821;51.456;8.844;2023-09-18T11:28:15;3.72;;;1.27;;
23304;SDS011;11821;51.456;8.844;2023-09-18T11:30:50;3.58;;;1.15;;
23304;SDS011;11821;51.456;8.844;2023-09-18T11:33:29;3.25;;;1.40;;
23304;SDS011;11821;51.456;8.844;2023-09-18T11:35:56;4.95;;;1.10;;
23304;SDS011;11821;51.456;8.844;2023-09-18T11:38:22;2.10;;;1.10;;
23304;SDS011;11821;51.456;8.844;2023-09-18T11:40:49;3.33;;;1.23;;
23304;SDS011;11821;51.456;8.844;2023-09-18T11:43:19;3.00;;;1.13;;
23304;SDS011;11821;51.456;8.844;2023-09-18T11:45:58;2.00;;;0.88;;
23304;SDS011;11821;51.456;8.844;2023-09-18T11:48:26;3.33;;;0.90;;
23304;SDS011;11821;51.456;8.844;2023-09-18T11:50:59;4.70;;;1.20;;
23304;SDS011;11821;51.456;8.844;2023-09-18T11:53:32;2.22;;;0.80;;
23304;SDS011;11821;51.456;8.844;2023-09-18T11:56:00;2.63;;;0.60;;
23304;SDS011;11821;51.456;8.844;2023-09-18T11:58:26;2.50;;;0.98;;
23304;SDS011;11821;51.456;8.844;2023-09-18T12:00:53;2.22;;;1.20;;
23304;SDS011;11821;51.456;8.844;2023-09-18T12:03:20;2.63;;;1.27;;
23304;SDS011;11821;51.456;8.844;2023-09-18T12:05:55;2.78;;;1.25;;
23304;SDS011;11821;51.456;8.844;2023-09-18T12:08:22;3.15;;;1.00;;
23304;SDS011;11821;51.456;8.844;2023-09-18T12:10:52;4.45;;;1.30;;
23304;SDS011;11821;51.456;8.844;2023-09-18T12:13:19;3.45;;;1.00;;
23304;SDS011;11821;51.456;8.844;2023-09-18T12:15:46;2.72;;;1.50;;
23304;SDS011;11821;51.456;8.844;2023-09-18T12:18:14;1.77;;;1.10;;
23304;SDS011;11821;51.456;8.844;2023-09-18T12:20:47;5.35;;;1.15;;
23304;SDS011;11821;51.456;8.844;2023-09-18T12:23:15;3.67;;;1.10;;
23304;SDS011;11821;51.456;8.844;2023-09-18T12:25:43;1.45;;;0.80;;
23304;SDS011;11821;51.456;8.844;2023-09-18T12:28:11;5.10;;;1.00;;
23304;SDS011;11821;51.456;8.844;2023-09-18T12:30:40;7.15;;;1.52;;
23304;SDS011;11821;51.456;8.844;2023-09-18T12:33:07;1.98;;;1.17;;
23304;SDS011;11821;51.456;8.844;2023-09-18T12:35:34;2.15;;;0.95;;
23304;SDS011;11821;51.456;8.844;2023-09-18T12:38:01;1.70;;;1.00;;
23304;SDS011;11821;51.456;8.844;2023-09-18T12:40:30;2.05;;;1.05;;
23304;SDS011;11821;51.456;8.844;2023-09-18T12:43:00;2.80;;;1.17;;
23304;SDS011;11821;51.456;8.844;2023-09-18T12:45:27;3.10;;;0.95;;
23304;SDS011;11821;51.456;8.844;2023-09-18T12:47:55;2.40;;;1.40;;
23304;SDS011;11821;51.456;8.844;2023-09-18T12:50:23;3.95;;;1.10;;
23304;SDS011;11821;51.456;8.844;2023-09-18T12:52:49;2.78;;;0.90;;
23304;SDS011;11821;51.456;8.844;2023-09-18T12:55:22;3.72;;;1.20;;
23304;SDS011;11821;51.456;8.844;2023-09-18T12:57:50;4.43;;;1.00;;
23304;SDS011;11821;51.456;8.844;2023-09-18T13:00:18;2.33;;;0.90;;
23304;SDS011;11821;51.456;8.844;2023-09-18T13:02:46;2.60;;;0.90;;
23304;SDS011;11821;51.456;8.844;2023-09-18T13:05:17;2.83;;;1.00;;
23304;SDS011;11821;51.456;8.844;2023-09-18T13:07:45;2.55;;;1.00;;
23304;SDS011;11821;51.456;8.844;2023-09-18T13:10:12;2.63;;;0.98;;
23304;SDS011;11821;51.456;8.844;2023-09-18T13:12:46;1.58;;;0.95;;
23304;SDS011;11821;51.456;8.844;2023-09-18T13:15:13;2.08;;;1.10;;
23304;SDS011;11821;51.456;8.844;2023-09-18T13:17:44;1.25;;;0.82;;
23304;SDS011;11821;51.456;8.844;2023-09-18T13:20:12;3.40;;;1.17;;
23304;SDS011;11821;51.456;8.844;2023-09-18T13:22:39;2.22;;;0.85;;
23304;SDS011;11821;51.456;8.844;2023-09-18T13:25:07;3.40;;;1.00;;
23304;SDS011;11821;51.456;8.844;2023-09-18T13:27:34;3.70;;;1.20;;
23304;SDS011;11821;51.456;8.844;2023-09-18T13:30:00;2.20;;;0.80;;
23304;SDS011;11821;51.456;8.844;2023-09-18T13:32:33;2.13;;;1.10;;
23304;SDS011;11821;51.456;8.844;2023-09-18T13:35:01;2.40;;;1.05;;
23304;SDS011;11821;51.456;8.844;2023-09-18T13:37:29;2.88;;;1.00;;
23304;SDS011;11821;51.456;8.844;2023-09-18T13:39:56;2.45;;;1.13;;
23304;SDS011;11821;51.456;8.844;2023-09-18T13:42:22;3.58;;;0.82;;
23304;SDS011;11821;51.456;8.844;2023-09-18T13:44:49;1.38;;;1.00;;
23304;SDS011;11821;51.456;8.844;2023-09-18T13:47:15;2.30;;;1.40;;
23304;SDS011;11821;51.456;8.844;2023-09-18T13:49:42;1.42;;;0.93;;
23304;SDS011;11821;51.456;8.844;2023-09-18T13:52:08;3.95;;;1.30;;
23304;SDS011;11821;51.456;8.844;2023-09-18T13:54:35;5.15;;;1.00;;
23304;SDS011;11821;51.456;8.844;2023-09-18T13:57:01;1.90;;;0.88;;
23304;SDS011;11821;51.456;8.844;2023-09-18T13:59:30;1.35;;;1.13;;
23304;SDS011;11821;51.456;8.844;2023-09-18T14:01:57;3.05;;;0.93;;
23304;SDS011;11821;51.456;8.844;2023-09-18T14:04:24;1.50;;;0.90;;
23304;SDS011;11821;51.456;8.844;2023-09-18T14:06:54;2.83;;;0.88;;
23304;SDS011;11821;51.456;8.844;2023-09-18T14:09:20;1.83;;;0.90;;
23304;SDS011;11821;51.456;8.844;2023-09-18T14:11:47;1.95;;;0.75;;
23304;SDS011;11821;51.456;8.844;2023-09-18T14:14:13;2.45;;;1.00;;
23304;SDS011;11821;51.456;8.844;2023-09-18T14:16:40;2.00;;;0.88;;
23304;SDS011;11821;51.456;8.844;2023-09-18T14:19:06;1.88;;;0.90;;
23304;SDS011;11821;51.456;8.844;2023-09-18T14:21:36;3.17;;;1.00;;
23304;SDS011;11821;51.456;8.844;2023-09-18T14:24:03;1.63;;;0.95;;
23304;SDS011;11821;51.456;8.844;2023-09-18T14:26:30;3.05;;;1.20;;
23304;SDS011;11821;51.456;8.844;2023-09-18T14:28:57;3.45;;;0.88;;
23304;SDS011;11821;51.456;8.844;2023-09-18T14:31:23;0.60;;;0.52;;
23304;SDS011;11821;51.456;8.844;2023-09-18T14:33:50;4.20;;;1.00;;
23304;SDS011;11821;51.456;8.844;2023-09-18T14:36:16;3.42;;;1.08;;
23304;SDS011;11821;51.456;8.844;2023-09-18T14:38:43;1.10;;;0.85;;
23304;SDS011;11821;51.456;8.844;2023-09-18T14:41:10;4.85;;;1.15;;
23304;SDS011;11821;51.456;8.844;2023-09-18T14:43:37;6.88;;;2.00;;
23304;SDS011;11821;51.456;8.844;2023-09-18T14:46:03;2.15;;;1.00;;
23304;SDS011;11821;51.456;8.844;2023-09-18T14:48:30;1.48;;;1.08;;
23304;SDS011;11821;51.456;8.844;2023-09-18T14:50:58;2.20;;;1.15;;
23304;SDS011;11821;51.456;8.844;2023-09-18T14:53:24;4.65;;;0.95;;
23304;SDS011;11821;51.456;8.844;2023-09-18T14:55:52;5.43;;;1.27;;
23304;SDS011;11821;51.456;8.844;2023-09-18T14:58:21;1.67;;;1.30;;
23304;SDS011;11821;51.456;8.844;2023-09-18T15:00:53;1.58;;;0.90;;
23304;SDS011;11821;51.456;8.844;2023-09-18T15:03:19;0.80;;;0.80;;
23304;SDS011;11821;51.456;8.844;2023-09-18T15:05:46;2.70;;;1.00;;
23304;SDS011;11821;51.456;8.844;2023-09-18T15:08:13;1.88;;;0.80;;
23304;SDS011;11821;51.456;8.844;2023-09-18T15:10:41;3.13;;;1.00;;